Time;durP1;ratioP1;P1;durP2;ratioP2;P2;SDS_P1;SDS_P2;PMS_P1;PMS_P2;Temp;Humidity;BMP_temperature;BMP_pressure;BME280_temperature;BME280_humidity;BME280_pressure;Samples;Min_cycle;Max_cycle;Signal;HPM_P1;HPM_P2
2021/08/08 00:01:42;;;;;;;;;;;13.20;99.90;;;;;;5030988;28;19909;-77
2021/08/08 00:04:07;;;;;;;;;;;13.10;99.90;;;;;;5031165;28;19909;-77
2021/08/08 00:06:33;;;;;;;;;;;13.10;99.90;;;;;;5011726;28;20201;-77
2021/08/08 00:08:59;;;;;;;;;;;13.10;99.90;;;;;;5030931;28;20429;-77
2021/08/08 00:11:24;;;;;;;;;;;13.10;99.90;;;;;;5013749;28;19912;-77
2021/08/08 00:13:50;;;;;;;;;;;13.00;99.90;;;;;;5031848;28;19909;-77
2021/08/08 00:16:15;;;;;;;;;;;13.00;99.90;;;;;;5031180;28;20308;-77
2021/08/08 00:18:41;;;;;;;;;;;13.00;99.90;;;;;;5031806;28;20047;-77
2021/08/08 00:21:07;;;;;;;;;;;13.00;99.90;;;;;;5031443;28;20292;-77
2021/08/08 00:23:32;;;;;;;;;;;13.00;99.90;;;;;;5031210;28;19909;-77
2021/08/08 00:25:58;;;;;;;;;;;13.10;99.90;;;;;;5034317;28;19909;-77
2021/08/08 00:28:23;;;;;;;;;;;13.10;99.90;;;;;;5034499;28;19991;-77
2021/08/08 00:30:49;;;;;;;;;;;13.10;99.90;;;;;;5034594;28;19917;-77
2021/08/08 00:33:14;;;;;;;;;;;13.20;99.90;;;;;;5034842;28;20000;-77
2021/08/08 00:35:42;;;;;;;;;;;13.20;99.90;;;;;;5034575;28;19913;-77
2021/08/08 00:38:11;;;;;;;;;;;13.30;99.90;;;;;;5034196;28;19915;-77
2021/08/08 00:40:36;;;;;;;;;;;13.30;99.90;;;;;;5034478;28;19916;-77
2021/08/08 00:43:02;;;;;;;;;;;13.20;99.90;;;;;;5034804;28;19909;-77
2021/08/08 00:45:28;;;;;;;;;;;13.20;99.90;;;;;;5034511;28;19912;-77
2021/08/08 00:47:53;;;;;;;;;;;13.20;99.90;;;;;;5016357;28;19913;-77
2021/08/08 00:50:19;;;;;;;;;;;13.20;99.90;;;;;;5034332;28;19909;-77
2021/08/08 00:52:44;;;;;;;;;;;13.10;99.90;;;;;;5034254;28;19940;-77
2021/08/08 00:55:11;;;;;;;;;;;13.10;99.90;;;;;;5034181;28;20278;-77
2021/08/08 00:57:36;;;;;;;;;;;13.00;99.90;;;;;;5033855;28;19916;-77
2021/08/08 01:00:06;;;;;;;;;;;12.90;99.90;;;;;;5016355;28;19909;-78
2021/08/08 01:02:33;;;;;;;;;;;12.90;99.90;;;;;;5034143;28;19909;-77
2021/08/08 01:05:01;;;;;;;;;;;12.80;99.90;;;;;;5016587;28;19959;-77
2021/08/08 01:07:29;;;;;;;;;;;12.80;99.90;;;;;;5033633;28;20357;-77
2021/08/08 01:09:57;;;;;;;;;;;12.80;99.90;;;;;;5033974;28;20333;-78
2021/08/08 01:12:23;;;;;;;;;;;12.70;99.90;;;;;;5034114;28;19999;-77
2021/08/08 01:14:49;;;;;;;;;;;12.70;99.90;;;;;;5033953;28;20389;-77
2021/08/08 01:17:15;;;;;;;;;;;12.70;99.90;;;;;;5033687;28;19909;-77
2021/08/08 01:19:57;;;;;;;;;;;12.60;99.90;;;;;;5032767;28;20392;-77
2021/08/08 01:22:25;;;;;;;;;;;12.60;99.90;;;;;;5016159;28;19909;-77
2021/08/08 01:24:51;;;;;;;;;;;12.60;99.90;;;;;;5033177;28;20370;-77
2021/08/08 01:27:17;;;;;;;;;;;12.60;99.90;;;;;;5033168;28;19935;-77
2021/08/08 01:29:42;;;;;;;;;;;12.60;99.90;;;;;;5015666;28;19909;-77
2021/08/08 01:32:08;;;;;;;;;;;12.60;99.90;;;;;;5015779;28;19963;-77
2021/08/08 01:34:34;;;;;;;;;;;12.70;99.90;;;;;;5033507;28;20417;-77
2021/08/08 01:37:00;;;;;;;;;;;12.70;99.90;;;;;;5033313;28;19909;-76
2021/08/08 01:39:26;;;;;;;;;;;12.80;99.90;;;;;;5033544;28;20342;-77
2021/08/08 01:41:52;;;;;;;;;;;12.80;99.90;;;;;;5015628;28;19963;-77
2021/08/08 01:44:23;;;;;;;;;;;12.80;99.90;;;;;;5033497;28;19909;-77
2021/08/08 01:46:51;;;;;;;;;;;12.70;99.90;;;;;;5032793;28;19924;-77
2021/08/08 01:49:18;;;;;;;;;;;12.70;99.90;;;;;;5033102;28;20270;-77
2021/08/08 01:51:44;;;;;;;;;;;12.70;99.90;;;;;;5031901;28;19909;-77
2021/08/08 01:54:10;;;;;;;;;;;12.70;99.90;;;;;;5015315;28;19909;-77
2021/08/08 01:56:35;;;;;;;;;;;12.70;99.90;;;;;;5032448;28;19960;-77
2021/08/08 01:59:01;;;;;;;;;;;12.70;99.90;;;;;;5033063;28;19909;-77
2021/08/08 02:01:28;;;;;;;;;;;12.70;99.90;;;;;;5032698;28;19909;-77
2021/08/08 02:03:53;;;;;;;;;;;12.70;99.90;;;;;;5032903;28;20285;-77
2021/08/08 02:06:18;;;;;;;;;;;12.70;99.90;;;;;;5032402;28;19916;-77
2021/08/08 02:08:44;;;;;;;;;;;12.60;99.90;;;;;;5032769;28;19924;-77
2021/08/08 02:11:09;;;;;;;;;;;12.60;99.90;;;;;;5033053;28;20000;-77
2021/08/08 02:13:35;;;;;;;;;;;12.50;99.90;;;;;;5032872;28;20012;-77
2021/08/08 02:16:00;;;;;;;;;;;12.50;99.90;;;;;;5014627;28;19920;-77
2021/08/08 02:18:26;;;;;;;;;;;12.40;99.90;;;;;;5032539;28;19915;-77
2021/08/08 02:20:51;;;;;;;;;;;12.40;99.90;;;;;;5032507;28;19913;-77
2021/08/08 02:23:17;;;;;;;;;;;12.40;99.90;;;;;;5014744;28;20062;-76
2021/08/08 02:25:43;;;;;;;;;;;12.40;99.90;;;;;;5032298;28;19956;-76
2021/08/08 02:28:08;;;;;;;;;;;12.30;99.90;;;;;;5032134;28;19913;-77
2021/08/08 02:30:34;;;;;;;;;;;12.30;99.90;;;;;;5032126;28;20079;-77
2021/08/08 02:33:00;;;;;;;;;;;12.30;99.90;;;;;;5014568;28;20377;-77
2021/08/08 02:35:26;;;;;;;;;;;12.30;99.90;;;;;;5032435;28;19909;-76
2021/08/08 02:37:51;;;;;;;;;;;12.30;99.90;;;;;;5014158;28;19932;-76
2021/08/08 02:40:17;;;;;;;;;;;12.30;99.90;;;;;;5014446;28;19909;-77
2021/08/08 02:42:42;;;;;;;;;;;12.20;99.90;;;;;;5032164;28;19963;-77
2021/08/08 02:45:08;;;;;;;;;;;12.20;99.90;;;;;;5032017;28;20376;-76
2021/08/08 02:47:33;;;;;;;;;;;12.10;99.90;;;;;;5031763;28;19982;-77
2021/08/08 02:49:59;;;;;;;;;;;12.10;99.90;;;;;;5031885;28;19963;-77
2021/08/08 02:52:25;;;;;;;;;;;12.10;99.90;;;;;;5032042;28;19913;-76
2021/08/08 02:54:50;;;;;;;;;;;12.10;99.90;;;;;;5031668;28;19916;-77
2021/08/08 02:57:16;;;;;;;;;;;12.10;99.90;;;;;;5031547;28;20333;-76
2021/08/08 02:59:41;;;;;;;;;;;12.10;99.90;;;;;;5031644;28;19910;-77
2021/08/08 03:02:07;;;;;;;;;;;12.10;99.90;;;;;;5031940;28;19916;-77
2021/08/08 03:04:33;;;;;;;;;;;12.10;99.90;;;;;;5032175;28;19909;-76
2021/08/08 03:06:58;;;;;;;;;;;12.00;99.90;;;;;;5031542;28;20416;-76
2021/08/08 03:09:24;;;;;;;;;;;12.00;99.90;;;;;;5032035;28;19909;-76
2021/08/08 03:11:49;;;;;;;;;;;12.00;99.90;;;;;;5031853;28;19914;-77
2021/08/08 03:14:16;;;;;;;;;;;12.00;99.90;;;;;;5031695;28;19913;-77
2021/08/08 03:16:42;;;;;;;;;;;12.00;99.90;;;;;;5030080;28;19941;-77
2021/08/08 03:19:08;;;;;;;;;;;12.00;99.90;;;;;;5031706;28;19963;-76
2021/08/08 03:21:34;;;;;;;;;;;12.00;99.90;;;;;;5031776;28;20293;-76
2021/08/08 03:23:59;;;;;;;;;;;12.00;99.90;;;;;;5031528;28;19916;-76
2021/08/08 03:26:24;;;;;;;;;;;12.00;99.90;;;;;;5013380;28;20027;-77
2021/08/08 03:28:50;;;;;;;;;;;12.00;99.90;;;;;;5031976;28;19909;-76
2021/08/08 03:31:17;;;;;;;;;;;12.00;99.90;;;;;;5031563;28;19917;-77
2021/08/08 03:33:43;;;;;;;;;;;12.00;99.90;;;;;;5014196;28;20302;-77
2021/08/08 03:36:11;;;;;;;;;;;11.90;99.90;;;;;;5013587;28;19909;-76
2021/08/08 03:38:36;;;;;;;;;;;11.90;99.90;;;;;;5031573;28;19909;-77
2021/08/08 03:41:02;;;;;;;;;;;11.80;99.90;;;;;;5031415;28;20396;-77
2021/08/08 03:43:27;;;;;;;;;;;11.80;99.90;;;;;;5030942;28;19909;-76
2021/08/08 03:45:52;;;;;;;;;;;11.70;99.90;;;;;;5031328;28;19917;-76
2021/08/08 03:48:18;;;;;;;;;;;11.60;99.90;;;;;;5013334;28;20004;-77
2021/08/08 03:50:44;;;;;;;;;;;11.60;99.90;;;;;;5013470;28;19916;-76
2021/08/08 03:53:10;;;;;;;;;;;11.60;99.90;;;;;;5030837;28;20285;-76
2021/08/08 03:55:35;;;;;;;;;;;11.60;99.90;;;;;;5031083;28;19919;-76
2021/08/08 03:58:00;;;;;;;;;;;11.50;99.90;;;;;;5030687;28;19913;-77
2021/08/08 04:00:26;;;;;;;;;;;11.50;99.90;;;;;;5013434;28;20384;-77
2021/08/08 04:02:52;;;;;;;;;;;11.50;99.90;;;;;;5031091;28;20008;-77
2021/08/08 04:05:17;;;;;;;;;;;11.40;99.90;;;;;;5031289;28;20332;-77
2021/08/08 04:07:43;;;;;;;;;;;11.40;99.90;;;;;;5030875;28;19913;-77
2021/08/08 04:10:08;;;;;;;;;;;11.30;99.90;;;;;;5031076;28;19932;-76
2021/08/08 04:12:34;;;;;;;;;;;11.20;99.90;;;;;;5030941;28;20016;-77
2021/08/08 04:15:03;;;;;;;;;;;11.20;99.90;;;;;;5031128;28;19909;-77
2021/08/08 04:17:29;;;;;;;;;;;11.10;99.90;;;;;;5030692;28;19909;-77
2021/08/08 04:19:54;;;;;;;;;;;11.10;99.90;;;;;;5031387;28;20067;-77
2021/08/08 04:22:20;;;;;;;;;;;11.00;99.90;;;;;;5046874;28;19913;-76
2021/08/08 04:24:45;;;;;;;;;;;11.00;99.90;;;;;;5031137;28;19920;-76
2021/08/08 04:27:12;;;;;;;;;;;11.10;99.90;;;;;;5012632;28;19936;-76
2021/08/08 04:29:37;;;;;;;;;;;11.10;99.90;;;;;;5013242;28;19909;-77
2021/08/08 04:32:03;;;;;;;;;;;11.10;99.90;;;;;;5030725;28;19917;-77
2021/08/08 04:34:31;;;;;;;;;;;11.10;99.90;;;;;;5030943;28;19932;-77
2021/08/08 04:36:57;;;;;;;;;;;11.00;99.90;;;;;;5012697;28;19916;-77
2021/08/08 04:39:23;;;;;;;;;;;11.10;99.90;;;;;;5030958;28;20289;-77
2021/08/08 04:41:48;;;;;;;;;;;11.10;99.90;;;;;;5030642;28;19909;-76
2021/08/08 04:44:14;;;;;;;;;;;11.10;99.90;;;;;;5013210;28;20374;-76
2021/08/08 04:46:39;;;;;;;;;;;11.10;99.90;;;;;;5012686;28;19920;-77
2021/08/08 04:49:05;;;;;;;;;;;11.20;99.90;;;;;;5030862;28;19913;-77
2021/08/08 04:51:30;;;;;;;;;;;11.30;99.90;;;;;;5030728;28;19916;-77
2021/08/08 04:53:56;;;;;;;;;;;11.40;99.90;;;;;;5030135;28;20286;-76
2021/08/08 04:56:21;;;;;;;;;;;11.50;99.90;;;;;;5033292;28;20051;-77
2021/08/08 04:58:47;;;;;;;;;;;11.50;99.90;;;;;;5034460;28;19909;-77
2021/08/08 05:01:12;;;;;;;;;;;11.50;99.90;;;;;;5034159;28;20358;-76
2021/08/08 05:03:37;;;;;;;;;;;11.60;99.90;;;;;;5034276;28;19971;-76
2021/08/08 05:06:04;;;;;;;;;;;11.70;99.90;;;;;;5015997;28;19913;-77
2021/08/08 05:08:30;;;;;;;;;;;11.70;99.90;;;;;;5016418;28;19909;-77
2021/08/08 05:10:55;;;;;;;;;;;11.80;99.90;;;;;;5033815;28;20374;-77
2021/08/08 05:13:21;;;;;;;;;;;11.90;99.90;;;;;;5034129;28;19909;-77
2021/08/08 05:15:46;;;;;;;;;;;12.00;99.90;;;;;;5033911;28;19909;-77
2021/08/08 05:18:12;;;;;;;;;;;12.00;99.90;;;;;;5033604;28;19909;-77
2021/08/08 05:20:37;;;;;;;;;;;12.10;99.90;;;;;;5016154;28;19909;-77
2021/08/08 05:23:03;;;;;;;;;;;12.20;99.90;;;;;;5033924;28;20389;-77
2021/08/08 05:25:28;;;;;;;;;;;12.40;99.90;;;;;;5015806;28;19909;-76
2021/08/08 05:27:54;;;;;;;;;;;12.70;99.90;;;;;;5033285;28;20444;-76
2021/08/08 05:30:19;;;;;;;;;;;12.90;99.90;;;;;;5015795;28;19913;-77
2021/08/08 05:32:45;;;;;;;;;;;13.00;99.90;;;;;;5016454;28;19919;-76
2021/08/08 05:35:10;;;;;;;;;;;13.00;99.90;;;;;;5033803;28;19916;-76
2021/08/08 05:37:36;;;;;;;;;;;13.10;99.90;;;;;;5033236;28;19936;-76
2021/08/08 05:40:07;;;;;;;;;;;13.10;99.90;;;;;;5015957;28;20377;-76
2021/08/08 05:42:33;;;;;;;;;;;13.20;99.90;;;;;;5016178;28;19924;-76
2021/08/08 05:44:59;;;;;;;;;;;13.30;99.90;;;;;;5033660;28;19936;-76
2021/08/08 05:47:24;;;;;;;;;;;13.30;99.90;;;;;;5033282;28;20006;-76
2021/08/08 05:49:50;;;;;;;;;;;13.40;99.90;;;;;;5015827;28;20358;-76
2021/08/08 05:52:17;;;;;;;;;;;13.50;99.90;;;;;;5033613;28;19909;-76
2021/08/08 05:54:42;;;;;;;;;;;13.50;99.90;;;;;;5033300;28;20362;-76
2021/08/08 05:57:08;;;;;;;;;;;13.50;99.90;;;;;;5032631;28;19909;-76
2021/08/08 05:59:33;;;;;;;;;;;13.50;99.90;;;;;;5033370;28;19967;-76
2021/08/08 06:01:59;;;;;;;;;;;13.50;99.90;;;;;;5033407;28;19948;-76
2021/08/08 06:04:24;;;;;;;;;;;13.50;99.90;;;;;;5033478;28;19913;-76
2021/08/08 06:06:50;;;;;;;;;;;13.60;99.90;;;;;;5032686;28;19913;-76
2021/08/08 06:09:16;;;;;;;;;;;13.60;99.90;;;;;;5033281;28;19920;-76
2021/08/08 06:11:41;;;;;;;;;;;13.70;99.90;;;;;;5033250;28;19916;-76
2021/08/08 06:14:07;;;;;;;;;;;13.80;99.90;;;;;;5033146;28;20023;-76
2021/08/08 06:16:32;;;;;;;;;;;13.90;99.90;;;;;;5032929;28;20008;-77
2021/08/08 06:18:58;;;;;;;;;;;13.90;99.90;;;;;;5033089;28;19959;-77
2021/08/08 06:21:23;;;;;;;;;;;13.90;99.90;;;;;;5033080;28;19913;-76
2021/08/08 06:23:49;;;;;;;;;;;14.00;99.90;;;;;;5033035;28;19917;-77
2021/08/08 06:26:14;;;;;;;;;;;14.00;99.90;;;;;;5032502;28;20418;-77
2021/08/08 06:28:40;;;;;;;;;;;14.10;99.90;;;;;;5032740;28;19987;-77
2021/08/08 06:31:05;;;;;;;;;;;14.20;99.90;;;;;;5032643;28;19917;-77
2021/08/08 06:33:31;;;;;;;;;;;14.20;99.90;;;;;;5032899;28;20385;-76
2021/08/08 06:35:58;;;;;;;;;;;14.30;99.90;;;;;;5030860;28;20213;-77
2021/08/08 06:38:24;;;;;;;;;;;14.40;99.90;;;;;;5031129;28;19909;-77
2021/08/08 06:40:49;;;;;;;;;;;14.40;99.90;;;;;;5032746;28;20408;-76
2021/08/08 06:43:15;;;;;;;;;;;14.50;99.90;;;;;;5032616;28;19964;-77
2021/08/08 06:45:40;;;;;;;;;;;14.50;99.90;;;;;;5032590;28;19909;-77
2021/08/08 06:48:06;;;;;;;;;;;14.60;99.90;;;;;;5032125;28;20349;-77
2021/08/08 06:50:32;;;;;;;;;;;14.60;99.90;;;;;;5032522;28;20000;-77
2021/08/08 06:52:58;;;;;;;;;;;14.70;99.90;;;;;;5032480;28;19914;-77
2021/08/08 06:55:23;;;;;;;;;;;14.70;99.90;;;;;;5031031;28;19910;-76
2021/08/08 06:57:49;;;;;;;;;;;14.90;99.90;;;;;;5031732;28;20370;-76
2021/08/08 07:00:15;;;;;;;;;;;15.00;99.90;;;;;;5032262;28;19920;-76
2021/08/08 07:02:40;;;;;;;;;;;15.10;99.90;;;;;;5032373;28;19916;-77
2021/08/08 07:05:06;;;;;;;;;;;15.30;99.90;;;;;;5032250;28;19909;-76
2021/08/08 07:07:32;;;;;;;;;;;16.10;99.90;;;;;;5030460;28;20007;-77
2021/08/08 07:09:57;;;;;;;;;;;17.20;99.90;;;;;;5032154;28;19913;-77
2021/08/08 07:12:23;;;;;;;;;;;18.50;99.90;;;;;;5030792;28;20016;-77
2021/08/08 07:14:48;;;;;;;;;;;19.60;99.90;;;;;;5031157;28;19932;-77
2021/08/08 07:17:14;;;;;;;;;;;20.60;99.90;;;;;;5030998;28;19936;-77
2021/08/08 07:19:41;;;;;;;;;;;21.00;99.90;;;;;;5032005;28;19913;-77
2021/08/08 07:22:06;;;;;;;;;;;21.60;99.90;;;;;;5031934;28;19996;-77
2021/08/08 07:24:32;;;;;;;;;;;21.80;99.90;;;;;;5031904;28;19956;-77
2021/08/08 07:26:57;;;;;;;;;;;21.20;99.90;;;;;;5031229;28;19914;-77
2021/08/08 07:29:23;;;;;;;;;;;21.10;99.90;;;;;;5031783;28;19909;-77
2021/08/08 07:31:49;;;;;;;;;;;21.50;99.90;;;;;;5030317;28;20357;-77
2021/08/08 07:34:14;;;;;;;;;;;22.00;99.90;;;;;;5031818;28;19915;-77
2021/08/08 07:36:40;;;;;;;;;;;22.40;99.90;;;;;;5031444;28;19909;-77
2021/08/08 07:39:05;;;;;;;;;;;22.90;99.90;;;;;;5031656;28;19913;-77
2021/08/08 07:41:31;;;;;;;;;;;23.10;99.90;;;;;;5030247;28;20389;-77
2021/08/08 07:43:56;;;;;;;;;;;23.50;99.90;;;;;;5030427;28;19916;-77
2021/08/08 07:46:22;;;;;;;;;;;23.60;99.90;;;;;;5030895;28;19995;-77
2021/08/08 07:48:47;;;;;;;;;;;23.90;99.90;;;;;;5031670;28;20259;-77
2021/08/08 07:51:13;;;;;;;;;;;24.00;99.90;;;;;;5030299;28;19916;-77
2021/08/08 07:53:42;;;;;;;;;;;24.40;99.90;;;;;;5030330;28;20527;-77
2021/08/08 07:56:07;;;;;;;;;;;24.70;99.90;;;;;;5031194;28;19917;-77
2021/08/08 07:58:33;;;;;;;;;;;24.90;99.90;;;;;;5013684;28;19909;-78
2021/08/08 08:00:58;;;;;;;;;;;24.90;99.90;;;;;;5031356;28;19909;-78
2021/08/08 08:03:24;;;;;;;;;;;24.70;99.90;;;;;;5031515;28;19932;-77
2021/08/08 08:05:49;;;;;;;;;;;24.80;99.90;;;;;;5031413;28;20266;-77
2021/08/08 08:08:15;;;;;;;;;;;24.70;99.90;;;;;;5031149;28;19924;-78
2021/08/08 08:10:40;;;;;;;;;;;24.90;99.90;;;;;;5031392;28;19951;-78
2021/08/08 08:13:06;;;;;;;;;;;25.10;99.90;;;;;;5013977;28;19909;-77
2021/08/08 08:15:31;;;;;;;;;;;25.00;99.90;;;;;;5031645;28;19969;-77
2021/08/08 08:17:57;;;;;;;;;;;24.90;99.90;;;;;;5031122;28;20051;-77
2021/08/08 08:20:22;;;;;;;;;;;25.10;99.90;;;;;;5031277;28;19955;-78
2021/08/08 08:22:48;;;;;;;;;;;24.80;99.90;;;;;;5013440;28;19917;-77
2021/08/08 08:25:14;;;;;;;;;;;24.70;99.90;;;;;;5031085;28;19920;-78
2021/08/08 08:27:40;;;;;;;;;;;24.70;99.90;;;;;;5029880;28;19921;-78
2021/08/08 08:30:06;;;;;;;;;;;24.20;99.90;;;;;;5033143;28;20420;-77
2021/08/08 08:32:31;;;;;;;;;;;23.80;99.90;;;;;;5034965;28;19909;-77
2021/08/08 08:35:02;;;;;;;;;;;23.50;99.90;;;;;;5034536;28;19913;-77
2021/08/08 08:37:28;;;;;;;;;;;23.10;99.90;;;;;;5034315;28;19916;-78
2021/08/08 08:39:53;;;;;;;;;;;24.00;99.90;;;;;;5035064;28;19995;-77
2021/08/08 08:42:19;;;;;;;;;;;24.20;99.90;;;;;;5036028;28;19909;-77
2021/08/08 08:44:44;;;;;;;;;;;24.60;99.90;;;;;;5035581;28;19909;-77
2021/08/08 08:47:13;;;;;;;;;;;24.50;99.90;;;;;;5034636;28;20400;-77
2021/08/08 08:49:41;;;;;;;;;;;24.70;99.90;;;;;;5035501;28;20362;-77
2021/08/08 08:52:09;;;;;;;;;;;25.10;99.90;;;;;;5034427;28;20012;-77
2021/08/08 08:54:35;;;;;;;;;;;25.30;99.90;;;;;;5035222;28;19909;-77
2021/08/08 08:57:02;;;;;;;;;;;25.10;99.90;;;;;;5034504;28;20008;-77
2021/08/08 08:59:28;;;;;;;;;;;24.50;99.80;;;;;;5016826;28;20278;-77
2021/08/08 09:01:54;;;;;;;;;;;24.30;99.90;;;;;;5034689;28;19909;-77
2021/08/08 09:04:19;;;;;;;;;;;23.90;99.90;;;;;;5034307;28;19913;-77
2021/08/08 09:06:45;;;;;;;;;;;23.40;99.90;;;;;;5034844;28;19919;-78
2021/08/08 09:09:10;;;;;;;;;;;23.00;99.90;;;;;;5017024;28;19938;-77
2021/08/08 09:11:40;;;;;;;;;;;22.50;99.90;;;;;;5034453;28;20362;-77
2021/08/08 09:14:05;;;;;;;;;;;21.90;99.90;;;;;;5034883;28;19913;-77
2021/08/08 09:16:36;;;;;;;;;;;21.60;99.90;;;;;;5033956;28;19909;-77
2021/08/08 09:19:01;;;;;;;;;;;21.60;99.90;;;;;;5016436;28;20395;-78
2021/08/08 09:21:27;;;;;;;;;;;22.00;99.90;;;;;;5016982;28;19944;-77
2021/08/08 09:23:54;;;;;;;;;;;22.30;99.90;;;;;;5033538;28;19956;-77
2021/08/08 09:26:30;;;;;;;;;;;22.60;99.90;;;;;;5021273;28;19916;-78
2021/08/08 09:29:12;;;;;;;;;;;22.60;99.90;;;;;;5033990;28;19924;-78
2021/08/08 09:31:48;;;;;;;;;;;22.60;99.90;;;;;;5033339;28;20433;-78
2021/08/08 09:34:29;;;;;;;;;;;22.40;99.90;;;;;;5013851;28;20013;-79
2021/08/08 09:36:56;;;;;;;;;;;22.20;99.90;;;;;;5032590;28;19935;-78
2021/08/08 09:39:43;;;;;;;;;;;22.60;99.90;;;;;;5034621;28;19932;-78
2021/08/08 09:42:10;;;;;;;;;;;23.00;99.90;;;;;;5015768;28;19949;-78
2021/08/08 09:44:37;;;;;;;;;;;23.00;99.90;;;;;;5036565;28;19917;-78
2021/08/08 09:47:02;;;;;;;;;;;22.80;99.50;;;;;;5037553;28;19913;-78
2021/08/08 09:49:28;;;;;;;;;;;22.90;99.90;;;;;;5037349;28;20051;-78
2021/08/08 09:51:53;;;;;;;;;;;23.20;99.90;;;;;;5017560;28;20160;-78
2021/08/08 09:54:19;;;;;;;;;;;23.30;99.90;;;;;;5036949;28;19945;-78
2021/08/08 09:56:55;;;;;;;;;;;23.50;99.20;;;;;;5038640;28;19979;-78
2021/08/08 09:59:21;;;;;;;;;;;23.10;98.90;;;;;;5037766;28;20441;-78
2021/08/08 10:01:47;;;;;;;;;;;23.00;99.20;;;;;;5035919;28;19941;-78
2021/08/08 10:04:12;;;;;;;;;;;23.00;99.80;;;;;;5037363;28;20362;-78
2021/08/08 10:06:38;;;;;;;;;;;23.40;99.90;;;;;;5035703;28;19948;-78
2021/08/08 10:09:05;;;;;;;;;;;23.70;97.80;;;;;;5037499;28;19936;-78
2021/08/08 10:11:31;;;;;;;;;;;24.00;99.10;;;;;;5039615;28;20374;-78
2021/08/08 10:14:01;;;;;;;;;;;24.40;99.80;;;;;;5041279;28;19909;-78
2021/08/08 10:16:31;;;;;;;;;;;24.80;96.50;;;;;;5039961;28;19909;-78
2021/08/08 10:18:58;;;;;;;;;;;24.90;97.70;;;;;;5030403;28;19955;-78
2021/08/08 10:21:24;;;;;;;;;;;25.30;96.60;;;;;;5023151;28;19949;-79
2021/08/08 10:23:51;;;;;;;;;;;25.20;96.00;;;;;;5040613;28;19916;-78
2021/08/08 10:26:17;;;;;;;;;;;25.00;96.10;;;;;;5038280;28;19909;-78
2021/08/08 10:28:43;;;;;;;;;;;24.30;96.90;;;;;;5039782;28;19984;-78
2021/08/08 10:31:09;;;;;;;;;;;23.60;96.20;;;;;;5039099;28;19956;-78
2021/08/08 10:33:44;;;;;;;;;;;23.00;97.30;;;;;;5039456;28;19913;-78
2021/08/08 10:36:17;;;;;;;;;;;22.70;97.40;;;;;;5038100;28;20656;-78
2021/08/08 10:38:43;;;;;;;;;;;22.80;97.80;;;;;;5021088;28;19956;-78
2021/08/08 10:41:09;;;;;;;;;;;23.00;99.80;;;;;;5039511;28;20023;-78
2021/08/08 10:43:35;;;;;;;;;;;23.40;98.70;;;;;;5021019;28;19909;-79
2021/08/08 10:46:02;;;;;;;;;;;24.10;99.20;;;;;;5021621;28;19935;-79
2021/08/08 10:48:31;;;;;;;;;;;24.60;97.00;;;;;;5038764;28;19959;-78
2021/08/08 10:50:56;;;;;;;;;;;25.00;97.00;;;;;;5038988;28;19917;-79
2021/08/08 10:53:22;;;;;;;;;;;25.20;96.00;;;;;;5038853;28;19909;-79
2021/08/08 10:56:09;;;;;;;;;;;25.50;96.60;;;;;;5022155;28;19916;-79
2021/08/08 10:58:35;;;;;;;;;;;25.70;94.90;;;;;;5040401;28;20270;-78
2021/08/08 11:01:01;;;;;;;;;;;26.10;94.90;;;;;;5040242;28;20003;-79
2021/08/08 11:03:27;;;;;;;;;;;25.50;93.40;;;;;;5022789;28;19963;-79
2021/08/08 11:05:52;;;;;;;;;;;25.10;94.20;;;;;;5040630;28;19909;-79
2021/08/08 11:08:21;;;;;;;;;;;25.30;93.70;;;;;;5022042;28;19936;-79
2021/08/08 11:10:46;;;;;;;;;;;25.40;93.70;;;;;;5040192;28;19916;-79
2021/08/08 11:13:19;;;;;;;;;;;25.50;93.00;;;;;;5040773;28;20366;-79
2021/08/08 11:15:45;;;;;;;;;;;25.80;93.50;;;;;;5022031;28;19958;-79
2021/08/08 11:18:11;;;;;;;;;;;26.40;94.60;;;;;;5040915;28;19944;-79
2021/08/08 11:20:36;;;;;;;;;;;26.60;92.60;;;;;;5040917;28;19914;-79
2021/08/08 11:23:03;;;;;;;;;;;26.60;92.70;;;;;;5040567;28;19945;-78
2021/08/08 11:25:35;;;;;;;;;;;26.00;90.90;;;;;;5040562;28;20325;-78
2021/08/08 11:28:01;;;;;;;;;;;25.00;91.90;;;;;;5040216;28;19924;-79
2021/08/08 11:30:36;;;;;;;;;;;24.00;93.90;;;;;;5037383;28;20382;-79
2021/08/08 11:33:01;;;;;;;;;;;23.70;94.90;;;;;;5040381;28;19916;-79
2021/08/08 11:35:29;;;;;;;;;;;23.50;93.20;;;;;;5039692;28;19909;-79
2021/08/08 11:37:54;;;;;;;;;;;23.20;94.80;;;;;;5039806;28;19964;-79
2021/08/08 11:40:21;;;;;;;;;;;23.20;95.60;;;;;;5038360;28;19910;-79
2021/08/08 11:42:47;;;;;;;;;;;23.50;96.20;;;;;;5039906;28;19913;-79
2021/08/08 11:45:13;;;;;;;;;;;23.50;96.70;;;;;;5037967;28;20000;-79
2021/08/08 11:47:38;;;;;;;;;;;23.80;96.30;;;;;;5036160;28;19914;-79
2021/08/08 11:50:06;;;;;;;;;;;24.10;95.70;;;;;;5037725;28;19909;-79
2021/08/08 11:52:32;;;;;;;;;;;24.50;94.50;;;;;;5036743;28;19959;-79
2021/08/08 11:55:07;;;;;;;;;;;24.60;92.90;;;;;;5038086;28;19909;-79
2021/08/08 11:57:34;;;;;;;;;;;24.50;93.00;;;;;;5035127;28;19981;-79
2021/08/08 12:00:00;;;;;;;;;;;24.00;93.00;;;;;;5038478;28;19909;-79
2021/08/08 12:02:27;;;;;;;;;;;23.60;92.70;;;;;;5039149;28;20009;-78
2021/08/08 12:04:53;;;;;;;;;;;23.50;93.00;;;;;;5040655;28;19916;-79
2021/08/08 12:07:21;;;;;;;;;;;23.90;94.40;;;;;;5041178;28;19994;-79
2021/08/08 12:09:47;;;;;;;;;;;24.60;93.60;;;;;;5043477;28;19909;-79
2021/08/08 12:12:12;;;;;;;;;;;24.80;92.50;;;;;;5043664;28;19905;-79
2021/08/08 12:14:39;;;;;;;;;;;24.90;92.30;;;;;;5043035;28;19917;-79
2021/08/08 12:17:23;;;;;;;;;;;24.40;92.00;;;;;;5041207;28;19910;-79
2021/08/08 12:19:50;;;;;;;;;;;23.50;92.00;;;;;;5040851;28;19909;-78
2021/08/08 12:22:16;;;;;;;;;;;22.30;93.40;;;;;;5042569;28;19913;-78
2021/08/08 12:24:49;;;;;;;;;;;21.80;94.10;;;;;;5039819;28;20295;-79
2021/08/08 12:27:15;;;;;;;;;;;21.90;95.20;;;;;;5035971;28;19913;-78
2021/08/08 12:29:41;;;;;;;;;;;22.20;94.10;;;;;;5036221;28;19967;-78
2021/08/08 12:32:07;;;;;;;;;;;22.20;94.50;;;;;;5034699;28;19925;-78
2021/08/08 12:34:32;;;;;;;;;;;22.00;94.80;;;;;;5034836;28;19909;-79
2021/08/08 12:37:03;;;;;;;;;;;22.20;95.20;;;;;;5035845;28;20382;-79
2021/08/08 12:39:28;;;;;;;;;;;22.60;93.90;;;;;;5037476;28;19909;-79
2021/08/08 12:41:54;;;;;;;;;;;22.80;94.30;;;;;;5036689;28;19921;-79
2021/08/08 12:44:29;;;;;;;;;;;23.00;93.50;;;;;;5037033;28;19909;-79
2021/08/08 12:46:59;;;;;;;;;;;23.30;95.20;;;;;;5034272;28;20352;-79
2021/08/08 12:49:31;;;;;;;;;;;23.90;95.80;;;;;;5035704;28;19952;-79
2021/08/08 12:51:56;;;;;;;;;;;24.50;93.60;;;;;;5035066;28;19936;-79
2021/08/08 12:54:22;;;;;;;;;;;24.40;92.80;;;;;;5036372;28;20051;-78
2021/08/08 12:56:47;;;;;;;;;;;24.50;93.00;;;;;;5028918;28;20281;-79
2021/08/08 12:59:13;;;;;;;;;;;24.90;94.90;;;;;;5036612;28;19915;-79
2021/08/08 13:01:40;;;;;;;;;;;24.90;92.60;;;;;;5036419;28;19920;-78
2021/08/08 13:04:08;;;;;;;;;;;24.70;92.60;;;;;;5036151;28;19909;-78
2021/08/08 13:06:33;;;;;;;;;;;24.30;93.00;;;;;;5035449;28;20057;-79
2021/08/08 13:08:59;;;;;;;;;;;24.60;93.70;;;;;;5036041;28;19988;-79
2021/08/08 13:11:25;;;;;;;;;;;24.80;94.30;;;;;;5017606;28;19991;-79
2021/08/08 13:13:50;;;;;;;;;;;24.60;92.00;;;;;;5037050;28;20002;-79
2021/08/08 13:16:15;;;;;;;;;;;24.00;93.60;;;;;;5033893;28;20397;-79
2021/08/08 13:18:41;;;;;;;;;;;23.90;93.20;;;;;;5035552;28;19944;-79
2021/08/08 13:21:06;;;;;;;;;;;24.40;93.50;;;;;;5035763;28;19909;-79
2021/08/08 13:23:32;;;;;;;;;;;24.40;92.90;;;;;;5036180;28;19917;-79
2021/08/08 13:25:58;;;;;;;;;;;24.30;94.80;;;;;;5036287;28;20239;-79
2021/08/08 13:28:24;;;;;;;;;;;24.00;93.30;;;;;;5035658;28;20346;-78
2021/08/08 13:30:50;;;;;;;;;;;24.00;93.10;;;;;;5035219;28;19963;-78
2021/08/08 13:33:15;;;;;;;;;;;23.80;95.00;;;;;;5035141;28;19913;-78
2021/08/08 13:35:41;;;;;;;;;;;23.00;94.00;;;;;;5035481;28;20298;-79
2021/08/08 13:38:06;;;;;;;;;;;22.50;95.30;;;;;;5034798;28;19909;-79
2021/08/08 13:40:32;;;;;;;;;;;22.70;95.90;;;;;;5017690;28;19910;-79
2021/08/08 13:42:57;;;;;;;;;;;22.50;96.00;;;;;;5016751;28;20378;-78
2021/08/08 13:45:23;;;;;;;;;;;22.30;95.60;;;;;;5016951;28;19916;-78
2021/08/08 13:47:49;;;;;;;;;;;22.20;95.40;;;;;;5034057;28;19921;-79
2021/08/08 13:50:15;;;;;;;;;;;22.30;95.80;;;;;;5035171;28;19913;-79
2021/08/08 13:52:40;;;;;;;;;;;22.30;95.90;;;;;;5017288;28;20031;-79
2021/08/08 13:55:06;;;;;;;;;;;22.60;95.30;;;;;;5035227;28;19913;-79
2021/08/08 13:57:31;;;;;;;;;;;22.60;95.30;;;;;;5017004;28;20073;-79
2021/08/08 13:59:57;;;;;;;;;;;22.40;95.70;;;;;;5016280;28;19909;-79
2021/08/08 14:02:22;;;;;;;;;;;22.50;96.80;;;;;;5034305;28;20380;-79
2021/08/08 14:04:48;;;;;;;;;;;22.30;95.40;;;;;;5034560;28;19909;-78
2021/08/08 14:07:13;;;;;;;;;;;21.90;95.50;;;;;;5034630;28;19920;-79
2021/08/08 14:09:39;;;;;;;;;;;21.30;96.60;;;;;;5016467;28;19955;-79
2021/08/08 14:12:04;;;;;;;;;;;20.70;97.80;;;;;;5016247;28;20282;-79